sensor_id;sensor_type;location;lat;lon;timestamp;pressure;altitude;pressure_sealevel;temperature;humidity
23170;BME280;11753;43.144;24.714;2023-03-16T00:00:46;98668.88;;;8.53;78.71
23170;BME280;11753;43.144;24.714;2023-03-16T00:01:47;98670.34;;;8.48;78.81
23170;BME280;11753;43.144;24.714;2023-03-16T00:02:51;98684.97;;;8.50;79.04
23170;BME280;11753;43.144;24.714;2023-03-16T00:03:52;98676.38;;;8.32;79.94
23170;BME280;11753;43.144;24.714;2023-03-16T00:04:52;98673.91;;;8.31;79.98
23170;BME280;11753;43.144;24.714;2023-03-16T00:05:54;98675.22;;;8.35;79.93
23170;BME280;11753;43.144;24.714;2023-03-16T00:06:56;98689.69;;;8.39;79.81
23170;BME280;11753;43.144;24.714;2023-03-16T00:07:58;98687.66;;;8.24;80.46
23170;BME280;11753;43.144;24.714;2023-03-16T00:08:58;98697.63;;;8.21;80.69
23170;BME280;11753;43.144;24.714;2023-03-16T00:09:59;98696.81;;;8.20;80.34
23170;BME280;11753;43.144;24.714;2023-03-16T00:11:01;98695.19;;;8.19;80.54
23170;BME280;11753;43.144;24.714;2023-03-16T00:12:02;98694.00;;;8.14;80.85
23170;BME280;11753;43.144;24.714;2023-03-16T00:13:03;98693.88;;;8.15;80.78
23170;BME280;11753;43.144;24.714;2023-03-16T00:14:04;98688.78;;;8.14;80.67
23170;BME280;11753;43.144;24.714;2023-03-16T00:15:05;98689.78;;;8.21;80.62
23170;BME280;11753;43.144;24.714;2023-03-16T00:16:06;98688.94;;;8.20;80.84
23170;BME280;11753;43.144;24.714;2023-03-16T00:17:07;98687.03;;;8.31;80.65
23170;BME280;11753;43.144;24.714;2023-03-16T00:18:08;98688.50;;;8.33;80.19
23170;BME280;11753;43.144;24.714;2023-03-16T00:19:11;98686.41;;;8.45;79.87
23170;BME280;11753;43.144;24.714;2023-03-16T00:20:16;98698.50;;;8.30;80.43
23170;BME280;11753;43.144;24.714;2023-03-16T00:21:17;98688.00;;;8.30;80.53
23170;BME280;11753;43.144;24.714;2023-03-16T00:22:18;98699.16;;;8.32;80.66
23170;BME280;11753;43.144;24.714;2023-03-16T00:23:19;98707.00;;;8.32;80.85
23170;BME280;11753;43.144;24.714;2023-03-16T00:24:26;98695.63;;;8.07;81.86
23170;BME280;11753;43.144;24.714;2023-03-16T00:25:27;98701.75;;;8.15;81.85
23170;BME280;11753;43.144;24.714;2023-03-16T00:26:28;98702.38;;;8.17;81.90
23170;BME280;11753;43.144;24.714;2023-03-16T00:27:29;98692.56;;;8.19;81.52
23170;BME280;11753;43.144;24.714;2023-03-16T00:28:31;98703.69;;;8.21;81.66
23170;BME280;11753;43.144;24.714;2023-03-16T00:29:34;98708.09;;;8.13;82.16
23170;BME280;11753;43.144;24.714;2023-03-16T00:30:35;98697.50;;;8.22;81.65
23170;BME280;11753;43.144;24.714;2023-03-16T00:31:40;98700.78;;;8.33;80.72
23170;BME280;11753;43.144;24.714;2023-03-16T00:32:44;98702.06;;;8.28;80.47
23170;BME280;11753;43.144;24.714;2023-03-16T00:33:45;98703.75;;;8.30;80.27
23170;BME280;11753;43.144;24.714;2023-03-16T00:34:46;98703.00;;;8.03;80.81
23170;BME280;11753;43.144;24.714;2023-03-16T00:35:47;98707.91;;;8.06;80.83
23170;BME280;11753;43.144;24.714;2023-03-16T00:37:01;98706.47;;;8.12;80.34
23170;BME280;11753;43.144;24.714;2023-03-16T00:38:05;98707.25;;;8.04;80.45
23170;BME280;11753;43.144;24.714;2023-03-16T00:39:06;98706.47;;;8.12;80.11
23170;BME280;11753;43.144;24.714;2023-03-16T00:40:08;98708.13;;;8.21;79.16
23170;BME280;11753;43.144;24.714;2023-03-16T00:41:08;98708.91;;;8.13;79.23
23170;BME280;11753;43.144;24.714;2023-03-16T00:42:11;98703.84;;;8.12;78.92
23170;BME280;11753;43.144;24.714;2023-03-16T00:43:12;98701.19;;;7.95;79.40
23170;BME280;11753;43.144;24.714;2023-03-16T00:44:18;98699.72;;;8.01;79.22
23170;BME280;11753;43.144;24.714;2023-03-16T00:45:18;98709.50;;;7.91;79.58
23170;BME280;11753;43.144;24.714;2023-03-16T00:46:19;98704.78;;;7.94;79.77
23170;BME280;11753;43.144;24.714;2023-03-16T00:47:31;98717.25;;;8.00;79.52
23170;BME280;11753;43.144;24.714;2023-03-16T00:48:36;98702.34;;;8.01;79.29
23170;BME280;11753;43.144;24.714;2023-03-16T00:49:38;98705.41;;;7.88;79.65
23170;BME280;11753;43.144;24.714;2023-03-16T00:50:39;98704.44;;;7.89;79.26
23170;BME280;11753;43.144;24.714;2023-03-16T00:51:39;98709.31;;;7.84;79.76
23170;BME280;11753;43.144;24.714;2023-03-16T00:52:48;98713.25;;;7.80;79.75
23170;BME280;11753;43.144;24.714;2023-03-16T00:53:48;98713.72;;;7.84;79.65
23170;BME280;11753;43.144;24.714;2023-03-16T00:54:49;98712.75;;;7.85;79.55
23170;BME280;11753;43.144;24.714;2023-03-16T00:55:53;98716.03;;;7.79;79.91
23170;BME280;11753;43.144;24.714;2023-03-16T00:56:54;98706.22;;;7.89;79.47
23170;BME280;11753;43.144;24.714;2023-03-16T00:57:56;98707.69;;;7.91;79.16
23170;BME280;11753;43.144;24.714;2023-03-16T00:58:56;98713.75;;;7.92;78.71
23170;BME280;11753;43.144;24.714;2023-03-16T00:59:57;98718.53;;;7.96;78.93
23170;BME280;11753;43.144;24.714;2023-03-16T01:00:59;98719.03;;;8.00;78.71
23170;BME280;11753;43.144;24.714;2023-03-16T01:02:01;98726.84;;;7.84;79.59
23170;BME280;11753;43.144;24.714;2023-03-16T01:03:02;98727.66;;;7.84;79.38
23170;BME280;11753;43.144;24.714;2023-03-16T01:04:03;98723.59;;;7.90;78.79
23170;BME280;11753;43.144;24.714;2023-03-16T01:05:05;98723.91;;;7.87;78.84
23170;BME280;11753;43.144;24.714;2023-03-16T01:06:08;98737.81;;;7.79;78.81
23170;BME280;11753;43.144;24.714;2023-03-16T01:07:12;98727.16;;;7.81;78.75
23170;BME280;11753;43.144;24.714;2023-03-16T01:08:13;98714.28;;;7.61;79.43
23170;BME280;11753;43.144;24.714;2023-03-16T01:09:14;98727.03;;;7.56;80.32
23170;BME280;11753;43.144;24.714;2023-03-16T01:10:16;98730.00;;;7.61;80.13
23170;BME280;11753;43.144;24.714;2023-03-16T01:11:19;98724.16;;;7.67;79.65
23170;BME280;11753;43.144;24.714;2023-03-16T01:12:21;98737.59;;;7.72;79.41
23170;BME280;11753;43.144;24.714;2023-03-16T01:13:22;98736.88;;;7.62;79.95
23170;BME280;11753;43.144;24.714;2023-03-16T01:14:23;98732.59;;;7.53;80.40
23170;BME280;11753;43.144;24.714;2023-03-16T01:15:23;98728.72;;;7.65;79.79
23170;BME280;11753;43.144;24.714;2023-03-16T01:16:24;98732.59;;;7.53;80.27
23170;BME280;11753;43.144;24.714;2023-03-16T01:17:26;98734.56;;;7.51;80.65
23170;BME280;11753;43.144;24.714;2023-03-16T01:18:27;98736.47;;;7.49;81.08
23170;BME280;11753;43.144;24.714;2023-03-16T01:19:29;98742.25;;;7.53;80.57
23170;BME280;11753;43.144;24.714;2023-03-16T01:20:33;98741.63;;;7.59;80.24
23170;BME280;11753;43.144;24.714;2023-03-16T01:21:34;98733.28;;;7.63;80.01
23170;BME280;11753;43.144;24.714;2023-03-16T01:22:37;98735.97;;;7.71;79.97
23170;BME280;11753;43.144;24.714;2023-03-16T01:23:39;98723.81;;;7.70;79.79
23170;BME280;11753;43.144;24.714;2023-03-16T01:24:41;98746.13;;;7.75;79.44
23170;BME280;11753;43.144;24.714;2023-03-16T01:25:42;98740.22;;;7.72;79.20
23170;BME280;11753;43.144;24.714;2023-03-16T01:26:43;98733.19;;;7.73;79.30
23170;BME280;11753;43.144;24.714;2023-03-16T01:27:44;98729.13;;;7.79;79.17
23170;BME280;11753;43.144;24.714;2023-03-16T01:28:44;98749.69;;;7.65;79.24
23170;BME280;11753;43.144;24.714;2023-03-16T01:29:45;98743.31;;;7.68;79.11
23170;BME280;11753;43.144;24.714;2023-03-16T01:30:46;98743.06;;;7.53;79.92
23170;BME280;11753;43.144;24.714;2023-03-16T01:31:47;98737.72;;;7.37;80.50
23170;BME280;11753;43.144;24.714;2023-03-16T01:32:50;98747.03;;;7.31;80.96
23170;BME280;11753;43.144;24.714;2023-03-16T01:33:51;98757.03;;;7.36;80.88
23170;BME280;11753;43.144;24.714;2023-03-16T01:34:52;98751.53;;;7.47;80.43
23170;BME280;11753;43.144;24.714;2023-03-16T01:35:55;98760.00;;;7.41;80.57
23170;BME280;11753;43.144;24.714;2023-03-16T01:36:56;98750.66;;;7.38;79.92
23170;BME280;11753;43.144;24.714;2023-03-16T01:37:57;98751.47;;;7.39;80.23
23170;BME280;11753;43.144;24.714;2023-03-16T01:38:58;98761.28;;;7.37;80.13
23170;BME280;11753;43.144;24.714;2023-03-16T01:39:59;98763.94;;;7.19;80.78
23170;BME280;11753;43.144;24.714;2023-03-16T01:41:02;98759.84;;;7.16;81.14
23170;BME280;11753;43.144;24.714;2023-03-16T01:42:03;98756.56;;;7.14;81.55
23170;BME280;11753;43.144;24.714;2023-03-16T01:43:05;98771.94;;;7.17;81.52
23170;BME280;11753;43.144;24.714;2023-03-16T01:44:21;98766.47;;;7.29;80.96
23170;BME280;11753;43.144;24.714;2023-03-16T01:45:54;98772.22;;;7.32;80.82
23170;BME280;11753;43.144;24.714;2023-03-16T01:47:06;98773.34;;;7.30;80.76
23170;BME280;11753;43.144;24.714;2023-03-16T01:48:07;98761.25;;;7.29;80.77
23170;BME280;11753;43.144;24.714;2023-03-16T01:49:21;98768.72;;;7.24;81.09
23170;BME280;11753;43.144;24.714;2023-03-16T01:50:23;98776.97;;;7.29;81.19
23170;BME280;11753;43.144;24.714;2023-03-16T01:52:37;98763.78;;;7.21;80.82
23170;BME280;11753;43.144;24.714;2023-03-16T01:53:40;98791.31;;;7.25;80.22
23170;BME280;11753;43.144;24.714;2023-03-16T01:55:06;98776.38;;;6.99;80.99
23170;BME280;11753;43.144;24.714;2023-03-16T01:56:11;98792.88;;;7.00;80.89
23170;BME280;11753;43.144;24.714;2023-03-16T01:57:23;98768.75;;;6.88;81.74
23170;BME280;11753;43.144;24.714;2023-03-16T01:58:27;98782.28;;;6.83;82.35
23170;BME280;11753;43.144;24.714;2023-03-16T01:59:39;98774.81;;;6.88;82.03
23170;BME280;11753;43.144;24.714;2023-03-16T02:00:42;98786.34;;;6.96;81.66
23170;BME280;11753;43.144;24.714;2023-03-16T02:01:45;98781.81;;;7.06;81.04
23170;BME280;11753;43.144;24.714;2023-03-16T02:02:50;98779.47;;;6.95;80.88
23170;BME280;11753;43.144;24.714;2023-03-16T02:03:59;98788.66;;;6.81;81.63
23170;BME280;11753;43.144;24.714;2023-03-16T02:05:07;98777.28;;;6.90;81.51
23170;BME280;11753;43.144;24.714;2023-03-16T02:06:17;98777.66;;;6.95;81.38
23170;BME280;11753;43.144;24.714;2023-03-16T02:07:21;98786.09;;;6.89;81.44
23170;BME280;11753;43.144;24.714;2023-03-16T02:08:26;98783.50;;;6.89;81.41
23170;BME280;11753;43.144;24.714;2023-03-16T02:09:27;98781.19;;;6.86;81.37
23170;BME280;11753;43.144;24.714;2023-03-16T02:10:29;98786.91;;;6.89;81.68
23170;BME280;11753;43.144;24.714;2023-03-16T02:11:30;98787.81;;;6.98;80.99
23170;BME280;11753;43.144;24.714;2023-03-16T02:12:32;98786.84;;;6.99;80.56
23170;BME280;11753;43.144;24.714;2023-03-16T02:13:33;98795.53;;;6.82;81.25
23170;BME280;11753;43.144;24.714;2023-03-16T02:14:36;98785.06;;;6.82;81.56
23170;BME280;11753;43.144;24.714;2023-03-16T02:15:37;98788.25;;;6.76;81.87
23170;BME280;11753;43.144;24.714;2023-03-16T02:16:39;98788.94;;;6.78;82.11
23170;BME280;11753;43.144;24.714;2023-03-16T02:17:42;98791.19;;;6.73;82.09
23170;BME280;11753;43.144;24.714;2023-03-16T02:18:47;98797.53;;;6.70;82.37
23170;BME280;11753;43.144;24.714;2023-03-16T02:21:31;98791.13;;;6.65;81.92
23170;BME280;11753;43.144;24.714;2023-03-16T02:22:38;98802.28;;;6.57;81.78
23170;BME280;11753;43.144;24.714;2023-03-16T02:23:42;98798.19;;;6.54;81.92
23170;BME280;11753;43.144;24.714;2023-03-16T02:24:44;98800.66;;;6.56;82.32
23170;BME280;11753;43.144;24.714;2023-03-16T02:26:07;98797.97;;;6.66;81.93
23170;BME280;11753;43.144;24.714;2023-03-16T02:27:13;98800.44;;;6.67;81.71
23170;BME280;11753;43.144;24.714;2023-03-16T02:28:23;98807.75;;;6.63;81.93
23170;BME280;11753;43.144;24.714;2023-03-16T02:30:46;98801.66;;;6.73;81.45
23170;BME280;11753;43.144;24.714;2023-03-16T02:31:47;98796.78;;;6.78;81.55
23170;BME280;11753;43.144;24.714;2023-03-16T02:32:48;98801.34;;;6.76;81.15
23170;BME280;11753;43.144;24.714;2023-03-16T02:33:53;98813.53;;;6.67;81.63
23170;BME280;11753;43.144;24.714;2023-03-16T02:34:54;98804.09;;;6.56;81.80
23170;BME280;11753;43.144;24.714;2023-03-16T02:35:55;98797.66;;;6.51;82.44
23170;BME280;11753;43.144;24.714;2023-03-16T02:36:59;98798.41;;;6.61;81.92
23170;BME280;11753;43.144;24.714;2023-03-16T02:38:01;98794.09;;;6.70;81.79
23170;BME280;11753;43.144;24.714;2023-03-16T02:39:02;98796.09;;;6.76;81.68
23170;BME280;11753;43.144;24.714;2023-03-16T02:40:24;98792.88;;;6.64;81.76
23170;BME280;11753;43.144;24.714;2023-03-16T02:41:25;98801.19;;;6.59;82.00
23170;BME280;11753;43.144;24.714;2023-03-16T02:42:27;98806.41;;;6.59;81.77
23170;BME280;11753;43.144;24.714;2023-03-16T02:43:32;98795.97;;;6.59;82.30
23170;BME280;11753;43.144;24.714;2023-03-16T02:44:37;98807.75;;;6.63;81.89
23170;BME280;11753;43.144;24.714;2023-03-16T02:45:51;98804.78;;;6.58;81.98
23170;BME280;11753;43.144;24.714;2023-03-16T02:46:56;98811.06;;;6.66;81.76
23170;BME280;11753;43.144;24.714;2023-03-16T02:48:01;98807.81;;;6.54;82.27
23170;BME280;11753;43.144;24.714;2023-03-16T02:49:13;98808.63;;;6.54;81.98
23170;BME280;11753;43.144;24.714;2023-03-16T02:50:15;98818.53;;;6.60;82.11
23170;BME280;11753;43.144;24.714;2023-03-16T02:51:16;98816.28;;;6.66;81.81
23170;BME280;11753;43.144;24.714;2023-03-16T02:52:17;98815.72;;;6.44;82.65
23170;BME280;11753;43.144;24.714;2023-03-16T02:53:19;98820.41;;;6.41;82.65
23170;BME280;11753;43.144;24.714;2023-03-16T02:54:20;98817.78;;;6.50;82.91
23170;BME280;11753;43.144;24.714;2023-03-16T02:55:24;98819.69;;;6.48;82.91
23170;BME280;11753;43.144;24.714;2023-03-16T02:56:25;98818.78;;;6.40;82.94
23170;BME280;11753;43.144;24.714;2023-03-16T02:57:26;98819.69;;;6.48;82.87
23170;BME280;11753;43.144;24.714;2023-03-16T02:58:30;98831.34;;;6.54;82.43
23170;BME280;11753;43.144;24.714;2023-03-16T02:59:31;98831.41;;;6.44;83.04
23170;BME280;11753;43.144;24.714;2023-03-16T03:00:32;98832.84;;;6.56;82.48
23170;BME280;11753;43.144;24.714;2023-03-16T03:01:33;98827.03;;;6.62;82.03
23170;BME280;11753;43.144;24.714;2023-03-16T03:02:34;98836.19;;;6.49;82.23
23170;BME280;11753;43.144;24.714;2023-03-16T03:03:34;98836.44;;;6.55;81.96
23170;BME280;11753;43.144;24.714;2023-03-16T03:04:35;98841.81;;;6.54;82.32
23170;BME280;11753;43.144;24.714;2023-03-16T03:05:36;98837.41;;;6.54;82.33
23170;BME280;11753;43.144;24.714;2023-03-16T03:06:37;98838.28;;;6.45;82.51
23170;BME280;11753;43.144;24.714;2023-03-16T03:07:38;98851.38;;;6.45;82.46
23170;BME280;11753;43.144;24.714;2023-03-16T03:08:40;98859.88;;;6.47;82.20
23170;BME280;11753;43.144;24.714;2023-03-16T03:09:42;98847.28;;;6.33;82.88
23170;BME280;11753;43.144;24.714;2023-03-16T03:10:43;98850.56;;;6.35;82.89
23170;BME280;11753;43.144;24.714;2023-03-16T03:11:44;98846.03;;;6.37;82.57
23170;BME280;11753;43.144;24.714;2023-03-16T03:12:46;98853.34;;;6.33;82.51
23170;BME280;11753;43.144;24.714;2023-03-16T03:13:49;98853.38;;;6.24;82.98
23170;BME280;11753;43.144;24.714;2023-03-16T03:14:50;98863.53;;;6.27;83.26
23170;BME280;11753;43.144;24.714;2023-03-16T03:15:51;98867.44;;;6.23;83.23
23170;BME280;11753;43.144;24.714;2023-03-16T03:16:52;98863.53;;;6.27;83.22
23170;BME280;11753;43.144;24.714;2023-03-16T03:17:52;98870.88;;;6.23;83.29
23170;BME280;11753;43.144;24.714;2023-03-16T03:18:53;98880.88;;;6.28;83.32
23170;BME280;11753;43.144;24.714;2023-03-16T03:19:55;98873.75;;;6.20;83.37
23170;BME280;11753;43.144;24.714;2023-03-16T03:20:56;98873.03;;;6.28;83.21
23170;BME280;11753;43.144;24.714;2023-03-16T03:21:57;98879.13;;;6.19;82.97
23170;BME280;11753;43.144;24.714;2023-03-16T03:22:58;98869.94;;;6.15;82.92
23170;BME280;11753;43.144;24.714;2023-03-16T03:23:58;98876.81;;;6.16;83.22
23170;BME280;11753;43.144;24.714;2023-03-16T03:24:59;98880.09;;;6.18;83.10
23170;BME280;11753;43.144;24.714;2023-03-16T03:26:03;98885.03;;;6.21;82.74
23170;BME280;11753;43.144;24.714;2023-03-16T03:27:04;98880.63;;;6.21;83.02
23170;BME280;11753;43.144;24.714;2023-03-16T03:28:05;98881.03;;;6.26;82.93
23170;BME280;11753;43.144;24.714;2023-03-16T03:29:06;98880.91;;;6.18;82.79
23170;BME280;11753;43.144;24.714;2023-03-16T03:30:08;98889.72;;;6.17;82.63
23170;BME280;11753;43.144;24.714;2023-03-16T03:31:14;98895.78;;;6.18;82.58
23170;BME280;11753;43.144;24.714;2023-03-16T03:32:15;98882.88;;;6.06;82.77
23170;BME280;11753;43.144;24.714;2023-03-16T03:33:17;98893.50;;;5.95;83.43
23170;BME280;11753;43.144;24.714;2023-03-16T03:34:18;98906.56;;;5.95;83.17
23170;BME280;11753;43.144;24.714;2023-03-16T03:35:19;98888.69;;;5.91;83.76
23170;BME280;11753;43.144;24.714;2023-03-16T03:36:20;98898.84;;;6.03;83.49
23170;BME280;11753;43.144;24.714;2023-03-16T03:37:21;98876.56;;;5.99;83.24
23170;BME280;11753;43.144;24.714;2023-03-16T03:38:23;98901.63;;;5.73;84.02
23170;BME280;11753;43.144;24.714;2023-03-16T03:39:24;98905.44;;;5.78;84.19
23170;BME280;11753;43.144;24.714;2023-03-16T03:40:25;98909.03;;;5.87;83.93
23170;BME280;11753;43.144;24.714;2023-03-16T03:41:28;98920.72;;;5.64;84.59
23170;BME280;11753;43.144;24.714;2023-03-16T03:42:29;98909.75;;;5.50;85.12
23170;BME280;11753;43.144;24.714;2023-03-16T03:43:30;98915.38;;;5.56;85.45
23170;BME280;11753;43.144;24.714;2023-03-16T03:44:33;98914.56;;;5.65;85.16
23170;BME280;11753;43.144;24.714;2023-03-16T03:45:37;98899.31;;;5.60;85.28
23170;BME280;11753;43.144;24.714;2023-03-16T03:46:38;98920.34;;;5.59;85.54
23170;BME280;11753;43.144;24.714;2023-03-16T03:47:40;98918.53;;;5.69;85.27
23170;BME280;11753;43.144;24.714;2023-03-16T03:48:41;98917.97;;;5.75;84.88
23170;BME280;11753;43.144;24.714;2023-03-16T03:49:42;98914.53;;;5.74;84.93
23170;BME280;11753;43.144;24.714;2023-03-16T03:50:43;98920.88;;;5.72;85.04
23170;BME280;11753;43.144;24.714;2023-03-16T03:51:44;98926.78;;;5.74;84.93
23170;BME280;11753;43.144;24.714;2023-03-16T03:52:47;98917.72;;;5.59;85.68
23170;BME280;11753;43.144;24.714;2023-03-16T03:53:48;98918.13;;;5.64;86.10
23170;BME280;11753;43.144;24.714;2023-03-16T03:54:49;98922.53;;;5.73;85.84
23170;BME280;11753;43.144;24.714;2023-03-16T03:55:50;98917.69;;;5.78;85.40
23170;BME280;11753;43.144;24.714;2023-03-16T03:56:51;98926.34;;;5.69;85.78
23170;BME280;11753;43.144;24.714;2023-03-16T03:57:52;98928.84;;;5.80;85.35
23170;BME280;11753;43.144;24.714;2023-03-16T03:58:53;98920.88;;;5.72;85.63
23170;BME280;11753;43.144;24.714;2023-03-16T03:59:54;98931.31;;;5.82;85.67
23170;BME280;11753;43.144;24.714;2023-03-16T04:00:55;98924.16;;;5.74;85.68
23170;BME280;11753;43.144;24.714;2023-03-16T04:01:56;98931.06;;;5.65;86.29
23170;BME280;11753;43.144;24.714;2023-03-16T04:02:57;98931.88;;;5.66;86.45
23170;BME280;11753;43.144;24.714;2023-03-16T04:03:58;98930.78;;;5.59;86.42
23170;BME280;11753;43.144;24.714;2023-03-16T04:04:59;98923.63;;;5.51;86.73
23170;BME280;11753;43.144;24.714;2023-03-16T04:06:00;98934.06;;;5.70;86.47
23170;BME280;11753;43.144;24.714;2023-03-16T04:07:00;98944.50;;;5.61;86.73
23170;BME280;11753;43.144;24.714;2023-03-16T04:08:01;98943.16;;;5.66;86.69
23170;BME280;11753;43.144;24.714;2023-03-16T04:09:02;98939.56;;;5.58;86.81
23170;BME280;11753;43.144;24.714;2023-03-16T04:10:04;98938.59;;;5.68;86.23
23170;BME280;11753;43.144;24.714;2023-03-16T04:11:05;98939.56;;;5.48;86.02
23170;BME280;11753;43.144;24.714;2023-03-16T04:12:06;98942.47;;;5.45;86.57
23170;BME280;11753;43.144;24.714;2023-03-16T04:13:07;98940.94;;;5.42;87.05
23170;BME280;11753;43.144;24.714;2023-03-16T04:14:08;98945.47;;;5.40;86.69
23170;BME280;11753;43.144;24.714;2023-03-16T04:15:09;98936.53;;;5.33;86.86
23170;BME280;11753;43.144;24.714;2023-03-16T04:16:12;98937.91;;;5.28;87.17
23170;BME280;11753;43.144;24.714;2023-03-16T04:17:15;98937.34;;;5.24;87.06
23170;BME280;11753;43.144;24.714;2023-03-16T04:18:17;98936.09;;;5.18;87.54
23170;BME280;11753;43.144;24.714;2023-03-16T04:19:22;98945.19;;;5.24;88.12
23170;BME280;11753;43.144;24.714;2023-03-16T04:20:23;98948.03;;;5.21;87.65
23170;BME280;11753;43.144;24.714;2023-03-16T04:21:24;98945.56;;;5.10;88.02
23170;BME280;11753;43.144;24.714;2023-03-16T04:22:24;98949.00;;;5.01;88.20
23170;BME280;11753;43.144;24.714;2023-03-16T04:23:25;98945.56;;;5.10;88.37
23170;BME280;11753;43.144;24.714;2023-03-16T04:24:26;98945.28;;;5.13;88.02
23170;BME280;11753;43.144;24.714;2023-03-16T04:25:27;98950.25;;;5.16;87.97
23170;BME280;11753;43.144;24.714;2023-03-16T04:26:31;98957.13;;;5.17;88.32
23170;BME280;11753;43.144;24.714;2023-03-16T04:27:32;98948.63;;;5.24;88.10
23170;BME280;11753;43.144;24.714;2023-03-16T04:28:35;98954.81;;;5.33;87.85
23170;BME280;11753;43.144;24.714;2023-03-16T04:29:37;98957.41;;;5.33;87.50
23170;BME280;11753;43.144;24.714;2023-03-16T04:30:38;98957.94;;;5.17;88.10
23170;BME280;11753;43.144;24.714;2023-03-16T04:31:39;98944.66;;;5.30;87.45
23170;BME280;11753;43.144;24.714;2023-03-16T04:32:41;98963.59;;;5.32;87.31
23170;BME280;11753;43.144;24.714;2023-03-16T04:33:42;98971.13;;;5.16;87.61
23170;BME280;11753;43.144;24.714;2023-03-16T04:34:43;98966.16;;;5.13;88.29
23170;BME280;11753;43.144;24.714;2023-03-16T04:35:44;98960.97;;;5.22;87.85
23170;BME280;11753;43.144;24.714;2023-03-16T04:36:45;98968.53;;;5.16;88.32
23170;BME280;11753;43.144;24.714;2023-03-16T04:37:46;98963.81;;;5.00;88.99
23170;BME280;11753;43.144;24.714;2023-03-16T04:38:47;98971.91;;;5.07;89.19
23170;BME280;11753;43.144;24.714;2023-03-16T04:39:48;98969.50;;;5.15;88.95
23170;BME280;11753;43.144;24.714;2023-03-16T04:40:49;98965.75;;;5.08;88.79
23170;BME280;11753;43.144;24.714;2023-03-16T04:41:50;98973.47;;;5.19;88.76
23170;BME280;11753;43.144;24.714;2023-03-16T04:42:51;98984.03;;;5.08;88.66
23170;BME280;11753;43.144;24.714;2023-03-16T04:43:52;98981.28;;;5.09;88.58
23170;BME280;11753;43.144;24.714;2023-03-16T04:44:53;98993.91;;;5.14;88.64
23170;BME280;11753;43.144;24.714;2023-03-16T04:45:55;98998.03;;;5.16;88.52
23170;BME280;11753;43.144;24.714;2023-03-16T04:46:55;98991.88;;;5.17;88.29
23170;BME280;11753;43.144;24.714;2023-03-16T04:47:56;98994.47;;;5.08;89.21
23170;BME280;11753;43.144;24.714;2023-03-16T04:48:57;98990.53;;;4.92;89.41
23170;BME280;11753;43.144;24.714;2023-03-16T04:50:00;99005.38;;;4.92;89.81
23170;BME280;11753;43.144;24.714;2023-03-16T04:51:04;99012.00;;;5.06;89.15
23170;BME280;11753;43.144;24.714;2023-03-16T04:52:05;99000.88;;;4.94;89.06
23170;BME280;11753;43.144;24.714;2023-03-16T04:53:06;99010.72;;;4.90;89.25
23170;BME280;11753;43.144;24.714;2023-03-16T04:54:08;99007.88;;;4.93;89.48
23170;BME280;11753;43.144;24.714;2023-03-16T04:55:09;99005.94;;;4.95;89.66
23170;BME280;11753;43.144;24.714;2023-03-16T04:56:10;99011.19;;;5.05;89.17
23170;BME280;11753;43.144;24.714;2023-03-16T04:57:18;99003.88;;;4.99;88.41
23170;BME280;11753;43.144;24.714;2023-03-16T04:58:19;99016.56;;;4.73;89.95
23170;BME280;11753;43.144;24.714;2023-03-16T04:59:20;99013.84;;;4.84;90.05
23170;BME280;11753;43.144;24.714;2023-03-16T05:00:20;99008.66;;;4.84;90.18
23170;BME280;11753;43.144;24.714;2023-03-16T05:01:22;99015.50;;;4.85;90.35
23170;BME280;11753;43.144;24.714;2023-03-16T05:02:23;99020.72;;;4.85;90.39
23170;BME280;11753;43.144;24.714;2023-03-16T05:03:24;99025.47;;;5.01;89.65
23170;BME280;11753;43.144;24.714;2023-03-16T05:04:24;99006.50;;;4.99;88.92
23170;BME280;11753;43.144;24.714;2023-03-16T05:05:25;99015.84;;;5.02;88.95
23170;BME280;11753;43.144;24.714;2023-03-16T05:06:26;99011.09;;;4.76;90.36
23170;BME280;11753;43.144;24.714;2023-03-16T05:07:30;99010.03;;;4.79;90.95
23170;BME280;11753;43.144;24.714;2023-03-16T05:08:32;99019.59;;;4.78;90.47
23170;BME280;11753;43.144;24.714;2023-03-16T05:09:33;99018.38;;;4.82;90.59
23170;BME280;11753;43.144;24.714;2023-03-16T05:10:34;99029.56;;;4.94;89.74
23170;BME280;11753;43.144;24.714;2023-03-16T05:11:34;99028.13;;;4.80;90.26
23170;BME280;11753;43.144;24.714;2023-03-16T05:12:35;99029.47;;;4.75;90.67
23170;BME280;11753;43.144;24.714;2023-03-16T05:13:39;99042.53;;;4.84;90.47
23170;BME280;11753;43.144;24.714;2023-03-16T05:14:40;99043.78;;;4.80;90.28
23170;BME280;11753;43.144;24.714;2023-03-16T05:15:41;99050.13;;;4.87;90.23
23170;BME280;11753;43.144;24.714;2023-03-16T05:16:42;99042.16;;;4.89;90.19
23170;BME280;11753;43.144;24.714;2023-03-16T05:17:43;99044.75;;;4.79;89.81
23170;BME280;11753;43.144;24.714;2023-03-16T05:18:43;99043.16;;;4.67;91.10
23170;BME280;11753;43.144;24.714;2023-03-16T05:19:44;99050.50;;;4.52;91.13
23170;BME280;11753;43.144;24.714;2023-03-16T05:20:45;99058.19;;;4.54;91.10
23170;BME280;11753;43.144;24.714;2023-03-16T05:21:48;99045.19;;;4.63;91.53
23170;BME280;11753;43.144;24.714;2023-03-16T05:22:48;99059.25;;;4.72;91.35
23170;BME280;11753;43.144;24.714;2023-03-16T05:23:49;99056.88;;;4.69;91.44
23170;BME280;11753;43.144;24.714;2023-03-16T05:24:52;99069.47;;;4.64;90.90
23170;BME280;11753;43.144;24.714;2023-03-16T05:25:53;99080.16;;;4.61;91.59
23170;BME280;11753;43.144;24.714;2023-03-16T05:26:54;99076.38;;;4.65;91.69
23170;BME280;11753;43.144;24.714;2023-03-16T05:27:56;99075.59;;;4.74;91.92
23170;BME280;11753;43.144;24.714;2023-03-16T05:28:57;99078.44;;;4.71;92.07
23170;BME280;11753;43.144;24.714;2023-03-16T05:29:58;99085.50;;;4.80;91.39
23170;BME280;11753;43.144;24.714;2023-03-16T05:31:01;99083.50;;;4.93;90.77
23170;BME280;11753;43.144;24.714;2023-03-16T05:32:03;99084.44;;;4.92;90.00
23170;BME280;11753;43.144;24.714;2023-03-16T05:33:06;99078.84;;;4.66;90.62
23170;BME280;11753;43.144;24.714;2023-03-16T05:34:07;99079.16;;;4.73;90.73
23170;BME280;11753;43.144;24.714;2023-03-16T05:35:10;99080.50;;;4.67;90.95